Aviation Digital Data Service (ADDS)

Output produced by METARs form (0211 UTC 22 April 2019)
found at http://www.aviationweather.gov/metar/data/
 
METAR text: RCFN 220200Z 17006KT 120V210 9999 FEW025 SCT035 30/23 Q1011 NOSIG RMK A2986
Conditions at: RCFN (FENG NIN TW-AFB , TW) observed 0200 UTC 22 April 2019
Temperature: 30.0°C (86°F)
Dewpoint: 23.0°C (73°F) [RH = 66%]
Pressure (altimeter): 29.85 inches Hg (1011.0 mb)
Winds: from the S (170 degrees) at 7 MPH (6 knots; 3.1 m/s)
Visibility: 6 or more miles (10+ km)
Ceiling: at least 12,000 feet AGL
Clouds: few clouds at 2500 feet AGL
scattered clouds at 3500 feet AGL
Weather: no significant weather observed at this time

METAR text: RCFN 220130Z 17005KT 130V200 9999 FEW022 SCT028 30/23 Q1010 NOSIG RMK A2985
Conditions at: RCFN (FENG NIN TW-AFB , TW) observed 0130 UTC 22 April 2019
Temperature: 30.0°C (86°F)
Dewpoint: 23.0°C (73°F) [RH = 66%]
Pressure (altimeter): 29.82 inches Hg (1010.0 mb)
Winds: from the S (170 degrees) at 6 MPH (5 knots; 2.6 m/s)
Visibility: 6 or more miles (10+ km)
Ceiling: at least 12,000 feet AGL
Clouds: few clouds at 2200 feet AGL
scattered clouds at 2800 feet AGL
Weather: no significant weather observed at this time

METAR text: RCFN 220100Z VRB02KT 9999 FEW025 30/23 Q1010 NOSIG RMK A2985
Conditions at: RCFN (FENG NIN TW-AFB , TW) observed 0100 UTC 22 April 2019
Temperature: 30.0°C (86°F)
Dewpoint: 23.0°C (73°F) [RH = 66%]
Pressure (altimeter): 29.82 inches Hg (1010.0 mb)
Winds: variable direction winds at 2 MPH (2 knots; 1.0 m/s)
Visibility: 6 or more miles (10+ km)
Ceiling: at least 12,000 feet AGL
Clouds: few clouds at 2500 feet AGL
Weather: no significant weather observed at this time

METAR text: RCFN 220030Z VRB02KT 9999 FEW025 28/23 Q1010 NOSIG RMK A2985
Conditions at: RCFN (FENG NIN TW-AFB , TW) observed 0030 UTC 22 April 2019
Temperature: 28.0°C (82°F)
Dewpoint: 23.0°C (73°F) [RH = 74%]
Pressure (altimeter): 29.82 inches Hg (1010.0 mb)
Winds: variable direction winds at 2 MPH (2 knots; 1.0 m/s)
Visibility: 6 or more miles (10+ km)
Ceiling: at least 12,000 feet AGL
Clouds: few clouds at 2500 feet AGL
Weather: no significant weather observed at this time

METAR text: RCFN 220000Z VRB02KT 9999 FEW025 28/24 Q1010 NOSIG RMK A2984
Conditions at: RCFN (FENG NIN TW-AFB , TW) observed 0000 UTC 22 April 2019
Temperature: 28.0°C (82°F)
Dewpoint: 24.0°C (75°F) [RH = 79%]
Pressure (altimeter): 29.82 inches Hg (1010.0 mb)
Winds: variable direction winds at 2 MPH (2 knots; 1.0 m/s)
Visibility: 6 or more miles (10+ km)
Ceiling: at least 12,000 feet AGL
Clouds: few clouds at 2500 feet AGL
Weather: no significant weather observed at this time

METAR text: RCFN 212330Z 32003KT 290V020 9999 FEW030 26/24 Q1010 NOSIG RMK A2984
Conditions at: RCFN (FENG NIN TW-AFB , TW) observed 2330 UTC 21 April 2019
Temperature: 26.0°C (79°F)
Dewpoint: 24.0°C (75°F) [RH = 89%]
Pressure (altimeter): 29.82 inches Hg (1010.0 mb)
Winds: from the NW (320 degrees) at 3 MPH (3 knots; 1.5 m/s)
Visibility: 6 or more miles (10+ km)
Ceiling: at least 12,000 feet AGL
Clouds: few clouds at 3000 feet AGL
Weather: no significant weather observed at this time

METAR text: RCFN 212300Z 33004KT 300V020 9999 FEW030 SCT120 25/23 Q1010 NOSIG RMK A2983
Conditions at: RCFN (FENG NIN TW-AFB , TW) observed 2300 UTC 21 April 2019
Temperature: 25.0°C (77°F)
Dewpoint: 23.0°C (73°F) [RH = 89%]
Pressure (altimeter): 29.82 inches Hg (1010.0 mb)
Winds: from the NNW (330 degrees) at 5 MPH (4 knots; 2.1 m/s)
Visibility: 6 or more miles (10+ km)
Ceiling: at least 12,000 feet AGL
Clouds: few clouds at 3000 feet AGL
scattered clouds at 12000 feet AGL
Weather: no significant weather observed at this time

METAR text: RCFN 212230Z 32004KT 290V360 9999 FEW035 SCT120 24/22 Q1010 NOSIG RMK A2983
Conditions at: RCFN (FENG NIN TW-AFB , TW) observed 2230 UTC 21 April 2019
Temperature: 24.0°C (75°F)
Dewpoint: 22.0°C (72°F) [RH = 89%]
Pressure (altimeter): 29.82 inches Hg (1010.0 mb)
Winds: from the NW (320 degrees) at 5 MPH (4 knots; 2.1 m/s)
Visibility: 6 or more miles (10+ km)
Ceiling: at least 12,000 feet AGL
Clouds: few clouds at 3500 feet AGL
scattered clouds at 12000 feet AGL
Weather: no significant weather observed at this time

METAR text: RCFN 212200Z 33003KT 290V040 9999 FEW035 SCT120 23/22 Q1009 NOSIG RMK A2982
Conditions at: RCFN (FENG NIN TW-AFB , TW) observed 2200 UTC 21 April 2019
Temperature: 23.0°C (73°F)
Dewpoint: 22.0°C (72°F) [RH = 94%]
Pressure (altimeter): 29.79 inches Hg (1009.0 mb)
Winds: from the NNW (330 degrees) at 3 MPH (3 knots; 1.5 m/s)
Visibility: 6 or more miles (10+ km)
Ceiling: at least 12,000 feet AGL
Clouds: few clouds at 3500 feet AGL
scattered clouds at 12000 feet AGL
Weather: no significant weather observed at this time

METAR text: RCFN 211200Z VRB02KT 9999 -RA FEW020 BKN100 25/24 Q1009 NOSIG RMK A2982 RA AMT 0.4MM
Conditions at: RCFN (FENG NIN TW-AFB , TW) observed 1200 UTC 21 April 2019
Temperature: 25.0°C (77°F)
Dewpoint: 24.0°C (75°F) [RH = 94%]
Pressure (altimeter): 29.79 inches Hg (1009.0 mb)
Winds: variable direction winds at 2 MPH (2 knots; 1.0 m/s)
Visibility: 6 or more miles (10+ km)
Ceiling: 10000 feet AGL
Clouds: few clouds at 2000 feet AGL
broken clouds at 10000 feet AGL
Weather: -RA  (light rain)

METAR text: RCFN 211130Z VRB02KT 9000 -RA FEW020 FEW025CB SCT035 BKN100 26/24 Q1009 RETS RESHRA NOSIG RMK CB N A2980
Conditions at: RCFN (FENG NIN TW-AFB , TW) observed 1130 UTC 21 April 2019
Temperature: 26.0°C (79°F)
Dewpoint: 24.0°C (75°F) [RH = 89%]
Pressure (altimeter): 29.79 inches Hg (1009.0 mb)
Winds: variable direction winds at 2 MPH (2 knots; 1.0 m/s)
Visibility: 6 miles ( 9 km)
Ceiling: 10000 feet AGL
Clouds: few clouds at 2000 feet AGL
few clouds at 2500 feet AGL
scattered clouds at 3500 feet AGL
broken clouds at 10000 feet AGL
Weather: -RA SHRA  (light rain, rain showers)

METAR text: RCFN 211118Z 06003KT 020V110 8000 VCTS -SHRA FEW020 FEW025CB BKN035 BKN120 26/24 Q1009 RESHRA NOSIG RMK TS NW MOV NE A2981
Conditions at: RCFN (FENG NIN TW-AFB , TW) observed 1118 UTC 21 April 2019
Temperature: 26.0°C (79°F)
Dewpoint: 24.0°C (75°F) [RH = 89%]
Pressure (altimeter): 29.79 inches Hg (1009.0 mb)
Winds: from the ENE (60 degrees) at 3 MPH (3 knots; 1.5 m/s)
Visibility: 5 miles ( 8 km)
Ceiling: 3500 feet AGL
Clouds: few clouds at 2000 feet AGL
few clouds at 2500 feet AGL
broken clouds at 3500 feet AGL
broken clouds at 12000 feet AGL
Weather: VCTS -SHRA  (thunderstorm in vicinity, light rain showers)

METAR text: RCFN 211110Z VRB02KT 9999 VCTS SHRA SCT020 FEW030CB BKN040 BKN120 26/24 Q1009 NOSIG RMK TS W-NW MOV NE A2982
Conditions at: RCFN (FENG NIN TW-AFB , TW) observed 1110 UTC 21 April 2019
Temperature: 26.0°C (79°F)
Dewpoint: 24.0°C (75°F) [RH = 89%]
Pressure (altimeter): 29.79 inches Hg (1009.0 mb)
Winds: variable direction winds at 2 MPH (2 knots; 1.0 m/s)
Visibility: 6 or more miles (10+ km)
Ceiling: 4000 feet AGL
Clouds: scattered clouds at 2000 feet AGL
few clouds at 3000 feet AGL
broken clouds at 4000 feet AGL
broken clouds at 12000 feet AGL
Weather: VCTS SHRA  (thunderstorm in vicinity, rain showers)

METAR text: RCFN 211105Z VRB02KT 9999 VCTS VCSH FEW020 FEW030CB BKN040 BKN120 26/24 Q1010 TEMPO SHRA RMK TS W-NW MOV NE A2983
Conditions at: RCFN (FENG NIN TW-AFB , TW) observed 1105 UTC 21 April 2019
Temperature: 26.0°C (79°F)
Dewpoint: 24.0°C (75°F) [RH = 89%]
Pressure (altimeter): 29.82 inches Hg (1010.0 mb)
Winds: variable direction winds at 2 MPH (2 knots; 1.0 m/s)
Visibility: 6 or more miles (10+ km)
Ceiling: 4000 feet AGL
Clouds: few clouds at 2000 feet AGL
few clouds at 3000 feet AGL
broken clouds at 4000 feet AGL
broken clouds at 12000 feet AGL
Weather: VCTS VCSH  (thunderstorm in vicinity, showers in vicinity)

METAR text: RCFN 211100Z VRB02KT 9999 VCSH FEW020 FEW030CB BKN040 BKN120 26/24 Q1010 TEMPO SHRA RMK CB W A2983
Conditions at: RCFN (FENG NIN TW-AFB , TW) observed 1100 UTC 21 April 2019
Temperature: 26.0°C (79°F)
Dewpoint: 24.0°C (75°F) [RH = 89%]
Pressure (altimeter): 29.82 inches Hg (1010.0 mb)
Winds: variable direction winds at 2 MPH (2 knots; 1.0 m/s)
Visibility: 6 or more miles (10+ km)
Ceiling: 4000 feet AGL
Clouds: few clouds at 2000 feet AGL
few clouds at 3000 feet AGL
broken clouds at 4000 feet AGL
broken clouds at 12000 feet AGL
Weather: VCSH  (showers in vicinity)

METAR text: RCFN 211030Z VRB02KT 9999 FEW020 SCT050 BKN100 27/24 Q1009 NOSIG RMK A2980
Conditions at: RCFN (FENG NIN TW-AFB , TW) observed 1030 UTC 21 April 2019
Temperature: 27.0°C (81°F)
Dewpoint: 24.0°C (75°F) [RH = 84%]
Pressure (altimeter): 29.79 inches Hg (1009.0 mb)
Winds: variable direction winds at 2 MPH (2 knots; 1.0 m/s)
Visibility: 6 or more miles (10+ km)
Ceiling: 10000 feet AGL
Clouds: few clouds at 2000 feet AGL
scattered clouds at 5000 feet AGL
broken clouds at 10000 feet AGL
Weather: no significant weather observed at this time

METAR text: RCFN 211000Z 06004KT 020V090 9999 FEW020 SCT100 27/24 Q1008 NOSIG RMK A2979
Conditions at: RCFN (FENG NIN TW-AFB , TW) observed 1000 UTC 21 April 2019
Temperature: 27.0°C (81°F)
Dewpoint: 24.0°C (75°F) [RH = 84%]
Pressure (altimeter): 29.76 inches Hg (1008.0 mb)
Winds: from the ENE (60 degrees) at 5 MPH (4 knots; 2.1 m/s)
Visibility: 6 or more miles (10+ km)
Ceiling: at least 12,000 feet AGL
Clouds: few clouds at 2000 feet AGL
scattered clouds at 10000 feet AGL
Weather: no significant weather observed at this time

METAR text: RCFN 210930Z 06007KT 030V090 9999 FEW025 SCT180 27/23 Q1008 NOSIG RMK A2977
Conditions at: RCFN (FENG NIN TW-AFB , TW) observed 0930 UTC 21 April 2019
Temperature: 27.0°C (81°F)
Dewpoint: 23.0°C (73°F) [RH = 79%]
Pressure (altimeter): 29.76 inches Hg (1008.0 mb)
Winds: from the ENE (60 degrees) at 8 MPH (7 knots; 3.6 m/s)
Visibility: 6 or more miles (10+ km)
Ceiling: at least 12,000 feet AGL
Clouds: few clouds at 2500 feet AGL
scattered clouds at 18000 feet AGL
Weather: no significant weather observed at this time

METAR text: RCFN 210900Z 07008KT 9999 FEW025 SCT150 28/23 Q1007 NOSIG RMK A2976
Conditions at: RCFN (FENG NIN TW-AFB , TW) observed 0900 UTC 21 April 2019
Temperature: 28.0°C (82°F)
Dewpoint: 23.0°C (73°F) [RH = 74%]
Pressure (altimeter): 29.73 inches Hg (1007.0 mb)
Winds: from the ENE (70 degrees) at 9 MPH (8 knots; 4.1 m/s)
Visibility: 6 or more miles (10+ km)
Ceiling: at least 12,000 feet AGL
Clouds: few clouds at 2500 feet AGL
scattered clouds at 15000 feet AGL
Weather: no significant weather observed at this time

METAR text: RCFN 210830Z 06007KT 020V080 9999 FEW022 SCT030 28/23 Q1007 NOSIG RMK A2976
Conditions at: RCFN (FENG NIN TW-AFB , TW) observed 0830 UTC 21 April 2019
Temperature: 28.0°C (82°F)
Dewpoint: 23.0°C (73°F) [RH = 74%]
Pressure (altimeter): 29.73 inches Hg (1007.0 mb)
Winds: from the ENE (60 degrees) at 8 MPH (7 knots; 3.6 m/s)
Visibility: 6 or more miles (10+ km)
Ceiling: at least 12,000 feet AGL
Clouds: few clouds at 2200 feet AGL
scattered clouds at 3000 feet AGL
Weather: no significant weather observed at this time

METAR text: RCFN 210800Z 06008KT 020V090 9999 FEW020 SCT030 29/23 Q1007 NOSIG RMK A2976
Conditions at: RCFN (FENG NIN TW-AFB , TW) observed 0800 UTC 21 April 2019
Temperature: 29.0°C (84°F)
Dewpoint: 23.0°C (73°F) [RH = 70%]
Pressure (altimeter): 29.73 inches Hg (1007.0 mb)
Winds: from the ENE (60 degrees) at 9 MPH (8 knots; 4.1 m/s)
Visibility: 6 or more miles (10+ km)
Ceiling: at least 12,000 feet AGL
Clouds: few clouds at 2000 feet AGL
scattered clouds at 3000 feet AGL
Weather: no significant weather observed at this time

METAR text: RCFN 210730Z 08008KT 040V110 9999 FEW020 30/23 Q1007 NOSIG RMK A2975
Conditions at: RCFN (FENG NIN TW-AFB , TW) observed 0730 UTC 21 April 2019
Temperature: 30.0°C (86°F)
Dewpoint: 23.0°C (73°F) [RH = 66%]
Pressure (altimeter): 29.73 inches Hg (1007.0 mb)
Winds: from the E (80 degrees) at 9 MPH (8 knots; 4.1 m/s)
Visibility: 6 or more miles (10+ km)
Ceiling: at least 12,000 feet AGL
Clouds: few clouds at 2000 feet AGL
Weather: no significant weather observed at this time

METAR text: RCFN 210700Z 05008KT 010V100 9999 FEW025 30/23 Q1007 NOSIG RMK A2975
Conditions at: RCFN (FENG NIN TW-AFB , TW) observed 0700 UTC 21 April 2019
Temperature: 30.0°C (86°F)
Dewpoint: 23.0°C (73°F) [RH = 66%]
Pressure (altimeter): 29.73 inches Hg (1007.0 mb)
Winds: from the NE (50 degrees) at 9 MPH (8 knots; 4.1 m/s)
Visibility: 6 or more miles (10+ km)
Ceiling: at least 12,000 feet AGL
Clouds: few clouds at 2500 feet AGL
Weather: no significant weather observed at this time

METAR text: RCFN 210630Z 07008KT 360V140 9999 FEW018 SCT120 29/24 Q1007 NOSIG RMK A2976
Conditions at: RCFN (FENG NIN TW-AFB , TW) observed 0630 UTC 21 April 2019
Temperature: 29.0°C (84°F)
Dewpoint: 24.0°C (75°F) [RH = 74%]
Pressure (altimeter): 29.73 inches Hg (1007.0 mb)
Winds: from the ENE (70 degrees) at 9 MPH (8 knots; 4.1 m/s)
Visibility: 6 or more miles (10+ km)
Ceiling: at least 12,000 feet AGL
Clouds: few clouds at 1800 feet AGL
scattered clouds at 12000 feet AGL
Weather: no significant weather observed at this time

METAR text: RCFN 210600Z 04006KT 350V080 9999 FEW015 SCT022 29/23 Q1008 NOSIG RMK A2977
Conditions at: RCFN (FENG NIN TW-AFB , TW) observed 0600 UTC 21 April 2019
Temperature: 29.0°C (84°F)
Dewpoint: 23.0°C (73°F) [RH = 70%]
Pressure (altimeter): 29.76 inches Hg (1008.0 mb)
Winds: from the NE (40 degrees) at 7 MPH (6 knots; 3.1 m/s)
Visibility: 6 or more miles (10+ km)
Ceiling: at least 12,000 feet AGL
Clouds: few clouds at 1500 feet AGL
scattered clouds at 2200 feet AGL
Weather: no significant weather observed at this time

METAR text: RCFN 210530Z 03005KT 340V110 9999 FEW015 SCT020 28/23 Q1008 NOSIG RMK A2977
Conditions at: RCFN (FENG NIN TW-AFB , TW) observed 0530 UTC 21 April 2019
Temperature: 28.0°C (82°F)
Dewpoint: 23.0°C (73°F) [RH = 74%]
Pressure (altimeter): 29.76 inches Hg (1008.0 mb)
Winds: from the NNE (30 degrees) at 6 MPH (5 knots; 2.6 m/s)
Visibility: 6 or more miles (10+ km)
Ceiling: at least 12,000 feet AGL
Clouds: few clouds at 1500 feet AGL
scattered clouds at 2000 feet AGL
Weather: no significant weather observed at this time

METAR text: RCFN 210500Z 07003KT 360V130 9999 FEW015 SCT020 BKN100 28/24 Q1008 NOSIG RMK A2978
Conditions at: RCFN (FENG NIN TW-AFB , TW) observed 0500 UTC 21 April 2019
Temperature: 28.0°C (82°F)
Dewpoint: 24.0°C (75°F) [RH = 79%]
Pressure (altimeter): 29.76 inches Hg (1008.0 mb)
Winds: from the ENE (70 degrees) at 3 MPH (3 knots; 1.5 m/s)
Visibility: 6 or more miles (10+ km)
Ceiling: 10000 feet AGL
Clouds: few clouds at 1500 feet AGL
scattered clouds at 2000 feet AGL
broken clouds at 10000 feet AGL
Weather: no significant weather observed at this time

METAR text: RCFN 210430Z VRB01KT 9999 FEW016 SCT020 BKN100 27/23 Q1009 NOSIG RMK A2980
Conditions at: RCFN (FENG NIN TW-AFB , TW) observed 0430 UTC 21 April 2019
Temperature: 27.0°C (81°F)
Dewpoint: 23.0°C (73°F) [RH = 79%]
Pressure (altimeter): 29.79 inches Hg (1009.0 mb)
Winds: variable direction winds at 1 MPH (1 knots; 0.5 m/s)
Visibility: 6 or more miles (10+ km)
Ceiling: 10000 feet AGL
Clouds: few clouds at 1600 feet AGL
scattered clouds at 2000 feet AGL
broken clouds at 10000 feet AGL
Weather: no significant weather observed at this time

METAR text: RCFN 210400Z VRB01KT 9999 FEW015 SCT020 BKN100 27/23 Q1009 NOSIG RMK A2982
Conditions at: RCFN (FENG NIN TW-AFB , TW) observed 0400 UTC 21 April 2019
Temperature: 27.0°C (81°F)
Dewpoint: 23.0°C (73°F) [RH = 79%]
Pressure (altimeter): 29.79 inches Hg (1009.0 mb)
Winds: variable direction winds at 1 MPH (1 knots; 0.5 m/s)
Visibility: 6 or more miles (10+ km)
Ceiling: 10000 feet AGL
Clouds: few clouds at 1500 feet AGL
scattered clouds at 2000 feet AGL
broken clouds at 10000 feet AGL
Weather: no significant weather observed at this time

METAR text: RCFN 210330Z 17003KT 130V220 9999 FEW015 SCT025 BKN100 27/23 Q1010 NOSIG RMK A2983
Conditions at: RCFN (FENG NIN TW-AFB , TW) observed 0330 UTC 21 April 2019
Temperature: 27.0°C (81°F)
Dewpoint: 23.0°C (73°F) [RH = 79%]
Pressure (altimeter): 29.82 inches Hg (1010.0 mb)
Winds: from the S (170 degrees) at 3 MPH (3 knots; 1.5 m/s)
Visibility: 6 or more miles (10+ km)
Ceiling: 10000 feet AGL
Clouds: few clouds at 1500 feet AGL
scattered clouds at 2500 feet AGL
broken clouds at 10000 feet AGL
Weather: no significant weather observed at this time

METAR text: RCFN 210300Z 18004KT 150V220 9999 FEW020 SCT100 BKN150 27/23 Q1010 NOSIG RMK A2983
Conditions at: RCFN (FENG NIN TW-AFB , TW) observed 0300 UTC 21 April 2019
Temperature: 27.0°C (81°F)
Dewpoint: 23.0°C (73°F) [RH = 79%]
Pressure (altimeter): 29.82 inches Hg (1010.0 mb)
Winds: from the S (180 degrees) at 5 MPH (4 knots; 2.1 m/s)
Visibility: 6 or more miles (10+ km)
Ceiling: 15000 feet AGL
Clouds: few clouds at 2000 feet AGL
scattered clouds at 10000 feet AGL
broken clouds at 15000 feet AGL
Weather: no significant weather observed at this time

METAR text: RCFN 210230Z VRB01KT 9999 FEW017 SCT100 BKN130 27/23 Q1010 NOSIG RMK A2984
Conditions at: RCFN (FENG NIN TW-AFB , TW) observed 0230 UTC 21 April 2019
Temperature: 27.0°C (81°F)
Dewpoint: 23.0°C (73°F) [RH = 79%]
Pressure (altimeter): 29.82 inches Hg (1010.0 mb)
Winds: variable direction winds at 1 MPH (1 knots; 0.5 m/s)
Visibility: 6 or more miles (10+ km)
Ceiling: 13000 feet AGL
Clouds: few clouds at 1700 feet AGL
scattered clouds at 10000 feet AGL
broken clouds at 13000 feet AGL
Weather: no significant weather observed at this time

METAR text: RCFN 210200Z 21003KT 9999 FEW023 SCT080 BKN110 26/23 Q1010 NOSIG RMK A2984
Conditions at: RCFN (FENG NIN TW-AFB , TW) observed 0200 UTC 21 April 2019
Temperature: 26.0°C (79°F)
Dewpoint: 23.0°C (73°F) [RH = 84%]
Pressure (altimeter): 29.82 inches Hg (1010.0 mb)
Winds: from the SSW (210 degrees) at 3 MPH (3 knots; 1.5 m/s)
Visibility: 6 or more miles (10+ km)
Ceiling: 11000 feet AGL
Clouds: few clouds at 2300 feet AGL
scattered clouds at 8000 feet AGL
broken clouds at 11000 feet AGL
Weather: no significant weather observed at this time

METAR text: RCFN 210154Z 22003KT 190V260 9999 FEW022 SCT080 BKN110 26/23 Q1010 NOSIG RMK A2984
Conditions at: RCFN (FENG NIN TW-AFB , TW) observed 0154 UTC 21 April 2019
Temperature: 26.0°C (79°F)
Dewpoint: 23.0°C (73°F) [RH = 84%]
Pressure (altimeter): 29.82 inches Hg (1010.0 mb)
Winds: from the SW (220 degrees) at 3 MPH (3 knots; 1.5 m/s)
Visibility: 6 or more miles (10+ km)
Ceiling: 11000 feet AGL
Clouds: few clouds at 2200 feet AGL
scattered clouds at 8000 feet AGL
broken clouds at 11000 feet AGL
Weather: no significant weather observed at this time

METAR text: RCFN 210130Z VRB03KT 9999 -RA FEW025 SCT080 BKN110 27/23 Q1010 NOSIG RMK A2984
Conditions at: RCFN (FENG NIN TW-AFB , TW) observed 0130 UTC 21 April 2019
Temperature: 27.0°C (81°F)
Dewpoint: 23.0°C (73°F) [RH = 79%]
Pressure (altimeter): 29.82 inches Hg (1010.0 mb)
Winds: variable direction winds at 3 MPH (3 knots; 1.5 m/s)
Visibility: 6 or more miles (10+ km)
Ceiling: 11000 feet AGL
Clouds: few clouds at 2500 feet AGL
scattered clouds at 8000 feet AGL
broken clouds at 11000 feet AGL
Weather: -RA  (light rain)

METAR text: RCFN 210100Z 33003KT 270V010 9999 -RA FEW025 BKN080 BKN110 26/23 Q1010 NOSIG RMK A2985
Conditions at: RCFN (FENG NIN TW-AFB , TW) observed 0100 UTC 21 April 2019
Temperature: 26.0°C (79°F)
Dewpoint: 23.0°C (73°F) [RH = 84%]
Pressure (altimeter): 29.82 inches Hg (1010.0 mb)
Winds: from the NNW (330 degrees) at 3 MPH (3 knots; 1.5 m/s)
Visibility: 6 or more miles (10+ km)
Ceiling: 8000 feet AGL
Clouds: few clouds at 2500 feet AGL
broken clouds at 8000 feet AGL
broken clouds at 11000 feet AGL
Weather: -RA  (light rain)

METAR text: RCFN 210055Z 33003KT 270V020 9999 -RA FEW025 BKN080 BKN110 26/23 Q1010 NOSIG RMK A2985
Conditions at: RCFN (FENG NIN TW-AFB , TW) observed 0055 UTC 21 April 2019
Temperature: 26.0°C (79°F)
Dewpoint: 23.0°C (73°F) [RH = 84%]
Pressure (altimeter): 29.82 inches Hg (1010.0 mb)
Winds: from the NNW (330 degrees) at 3 MPH (3 knots; 1.5 m/s)
Visibility: 6 or more miles (10+ km)
Ceiling: 8000 feet AGL
Clouds: few clouds at 2500 feet AGL
broken clouds at 8000 feet AGL
broken clouds at 11000 feet AGL
Weather: -RA  (light rain)

METAR text: RCFN 210030Z VRB02KT 9999 FEW025 SCT030 BKN100 26/23 Q1010 NOSIG RMK A2985
Conditions at: RCFN (FENG NIN TW-AFB , TW) observed 0030 UTC 21 April 2019
Temperature: 26.0°C (79°F)
Dewpoint: 23.0°C (73°F) [RH = 84%]
Pressure (altimeter): 29.82 inches Hg (1010.0 mb)
Winds: variable direction winds at 2 MPH (2 knots; 1.0 m/s)
Visibility: 6 or more miles (10+ km)
Ceiling: 10000 feet AGL
Clouds: few clouds at 2500 feet AGL
scattered clouds at 3000 feet AGL
broken clouds at 10000 feet AGL
Weather: no significant weather observed at this time

METAR text: RCFN 210000Z 32004KT 280V010 9999 FEW025 SCT030 BKN100 25/23 Q1010 NOSIG RMK A2985
Conditions at: RCFN (FENG NIN TW-AFB , TW) observed 0000 UTC 21 April 2019
Temperature: 25.0°C (77°F)
Dewpoint: 23.0°C (73°F) [RH = 89%]
Pressure (altimeter): 29.82 inches Hg (1010.0 mb)
Winds: from the NW (320 degrees) at 5 MPH (4 knots; 2.1 m/s)
Visibility: 6 or more miles (10+ km)
Ceiling: 10000 feet AGL
Clouds: few clouds at 2500 feet AGL
scattered clouds at 3000 feet AGL
broken clouds at 10000 feet AGL
Weather: no significant weather observed at this time

METAR text: RCFN 202330Z 33003KT 270V060 9999 FEW020 SCT030 BKN100 25/22 Q1010 NOSIG RMK A2984
Conditions at: RCFN (FENG NIN TW-AFB , TW) observed 2330 UTC 20 April 2019
Temperature: 25.0°C (77°F)
Dewpoint: 22.0°C (72°F) [RH = 83%]
Pressure (altimeter): 29.82 inches Hg (1010.0 mb)
Winds: from the NNW (330 degrees) at 3 MPH (3 knots; 1.5 m/s)
Visibility: 6 or more miles (10+ km)
Ceiling: 10000 feet AGL
Clouds: few clouds at 2000 feet AGL
scattered clouds at 3000 feet AGL
broken clouds at 10000 feet AGL
Weather: no significant weather observed at this time

METAR text: RCFN 202300Z 32003KT 280V360 9999 FEW020 SCT025 BKN100 24/23 Q1010 NOSIG RMK A2983
Conditions at: RCFN (FENG NIN TW-AFB , TW) observed 2300 UTC 20 April 2019
Temperature: 24.0°C (75°F)
Dewpoint: 23.0°C (73°F) [RH = 94%]
Pressure (altimeter): 29.82 inches Hg (1010.0 mb)
Winds: from the NW (320 degrees) at 3 MPH (3 knots; 1.5 m/s)
Visibility: 6 or more miles (10+ km)
Ceiling: 10000 feet AGL
Clouds: few clouds at 2000 feet AGL
scattered clouds at 2500 feet AGL
broken clouds at 10000 feet AGL
Weather: no significant weather observed at this time

METAR text: RCFN 202230Z 33003KT 280V010 9999 FEW020 SCT025 BKN100 24/22 Q1009 NOSIG RMK A2982
Conditions at: RCFN (FENG NIN TW-AFB , TW) observed 2230 UTC 20 April 2019
Temperature: 24.0°C (75°F)
Dewpoint: 22.0°C (72°F) [RH = 89%]
Pressure (altimeter): 29.79 inches Hg (1009.0 mb)
Winds: from the NNW (330 degrees) at 3 MPH (3 knots; 1.5 m/s)
Visibility: 6 or more miles (10+ km)
Ceiling: 10000 feet AGL
Clouds: few clouds at 2000 feet AGL
scattered clouds at 2500 feet AGL
broken clouds at 10000 feet AGL
Weather: no significant weather observed at this time

METAR text: RCFN 202200Z 34003KT 290V020 9999 -RA FEW020 SCT030 BKN100 24/22 Q1009 NOSIG RMK A2981
Conditions at: RCFN (FENG NIN TW-AFB , TW) observed 2200 UTC 20 April 2019
Temperature: 24.0°C (75°F)
Dewpoint: 22.0°C (72°F) [RH = 89%]
Pressure (altimeter): 29.79 inches Hg (1009.0 mb)
Winds: from the NNW (340 degrees) at 3 MPH (3 knots; 1.5 m/s)
Visibility: 6 or more miles (10+ km)
Ceiling: 10000 feet AGL
Clouds: few clouds at 2000 feet AGL
scattered clouds at 3000 feet AGL
broken clouds at 10000 feet AGL
Weather: -RA  (light rain)

Forecast for: RCFN (FENG NIN TW-AFB , TW)
Text: TAF RCFN 212300Z 2200/2224 07005KT 9999 FEW015 BKN032
Forecast period: 0000 to 1000 UTC 22 April 2019
Forecast type: FROM: standard forecast or significant change
Winds: from the ENE (70 degrees) at 6 MPH (5 knots; 2.6 m/s)
Visibility: 6 or more miles 10+ km)
Ceiling: 3200 feet AGL
Clouds: few clouds at 1500 feet AGL
broken clouds at 3200 feet AGL
Weather: no significant weather forecast for this period
Text: TEMPO 2200/2204 35005KT
Forecast period: 0000 to 0400 UTC 22 April 2019
Forecast type: TEMPORARY: The following changes expected for less than half the time period
Winds: from the N (350 degrees) at 6 MPH (5 knots; 2.6 m/s)
Visibility: missing
Ceiling: unknown
Clouds: missing
Weather: no significant weather forecast for this period
Text: TEMPO 2206/2210 3000 SHRA FEW008 FEW015CB BKN022 BKN040
Forecast period: 0600 to 1000 UTC 22 April 2019
Forecast type: TEMPORARY: The following changes expected for less than half the time period
Visibility: 1.86 miles (2.99 km)
Ceiling: 2200 feet AGL
Clouds: few clouds at 800 feet AGL
few clouds at 1500 feet AGL
broken clouds at 2200 feet AGL
Weather: SHRA  (rain showers)
Text: BECMG 2210/2212 35005KT
Forecast period: 1000 UTC 22 April 2019 to 0000 UTC 23 April 2019
Forecast type: BECOMING: Conditions expected to become as follows by 1200 UTC 22 April 2019
Winds: from the N (350 degrees) at 6 MPH (5 knots; 2.6 m/s)
Visibility: 6 or more miles 10+ km)
Ceiling: 3200 feet AGL
Clouds: few clouds at 1500 feet AGL
broken clouds at 3200 feet AGL
Weather: no significant weather forecast for this period